Taylor, NE

12:26 PM CDT on May 06, 2015 (GMT -0500)
APRSWXNET | | Change Station
CLOSE
Current Station
Personal Weather Station
Location: Sargent, NE
Elevation: 2340 ft
Nearby Weather Stations

Elev 2340 ft 41.64 °N, 99.38 °W | Updated 30 minutes ago

Rain
Rain
61 °F
Feels Like 61 °F
N
3
Wind Variable Wind from SSE
Gusts 8.0 mph

Today
High -- | Low -- °F
--% Chance of Precip.
Yesterday
High -- | Low -- °F
Precip. -- in
6:27 AM 8:41 PM
Waning Gibbous, 93% visible
Pressure 29.71 in
Visibility 10.0 miles
Clouds Mostly Cloudy 1300 ft
Mostly Cloudy 1900 ft
Overcast 2800 ft
Dew Point 60 °F
Humidity 95%
Rainfall in
Snow Depth Not available.
UV 3 out of 12
Pollen 8.20 out of 12
Air Quality Not available.
Flu Activity Local Activity
METAR KODX 061653Z AUTO 15014G19KT 10SM -RA BKN013 BKN019 OVC028 17/15 A2971 RMK AO2 SLP059 P0002 T01720150

More Conditions Fewer Conditions

Pressure 29.71 in
Visibility 10.0 miles
Clouds Mostly Cloudy 1300 ft
Mostly Cloudy 1900 ft
Overcast 2800 ft
Dew Point 60 °F
Humidity 95%
Rainfall in
Snow Depth Not available.
UV 3 out of 12
Pollen 8.20 out of 12
Air Quality Not available.
Flu Activity Local Activity
METAR KODX 061653Z AUTO 15014G19KT 10SM -RA BKN013 BKN019 OVC028 17/15 A2971 RMK AO2 SLP059 P0002 T01720150

More Conditions Fewer Conditions

Nowcast | as of 10:22 am CDT on May 6, 2015

Scattered to numerous rain showers will continue to lift north across the central sandhills and north central Nebraska this morning. Locally brief heavy rainfall is possible. Rainfall amounts generally will be around a tenth of an inch per hour or less...however a few locations may see a quarter of an inch.

×

10-Day Weather Forecast

Almanac

Astronomy

May. 06, 2015 Rise Set
Actual Time
Civil Twilight
Nautical Twilight
Astronomical Twilight
Moon
Length of Visible Light
Length of Day
Tomorrow will be .
, % of the Moon is Illuminated

Today's Extremes

State Highs State Lows

Community

WunderPhotos

Upload Photos

1,818,956 photos uploaded!

WunderBlogs® & News

Nearby

Air Quality

  Air Quality AQ Index Pollutant
Not available.

Snow Depth

Station Depth Elevation

Earthquake Activity

City Distance Mag. Time & Date
Minimum magnitude displayed is 2.5.

Coastal Water Temperatures

Place Temperature

Stations

Nearby Weather Stations

Station Location Temp. Windchill Dew Point Humidity Wind Precip. Elev Updated Type